sensor_id;sensor_type;location;lat;lon;timestamp;P1;durP1;ratioP1;P2;durP2;ratioP2
46507;SDS011;32223;53.654;10.014;2023-06-19T00:01:59;5.10;;;4.05;;
46507;SDS011;32223;53.654;10.014;2023-06-19T00:04:25;6.18;;;4.22;;
46507;SDS011;32223;53.654;10.014;2023-06-19T00:06:51;5.32;;;4.00;;
46507;SDS011;32223;53.654;10.014;2023-06-19T00:09:17;6.72;;;4.10;;
46507;SDS011;32223;53.654;10.014;2023-06-19T00:11:43;4.90;;;3.90;;
46507;SDS011;32223;53.654;10.014;2023-06-19T00:14:09;6.82;;;4.20;;
46507;SDS011;32223;53.654;10.014;2023-06-19T00:16:35;5.15;;;3.83;;
46507;SDS011;32223;53.654;10.014;2023-06-19T00:19:00;5.78;;;3.85;;
46507;SDS011;32223;53.654;10.014;2023-06-19T00:21:28;7.53;;;3.88;;
46507;SDS011;32223;53.654;10.014;2023-06-19T00:23:54;4.78;;;4.05;;
46507;SDS011;32223;53.654;10.014;2023-06-19T00:26:20;5.82;;;3.78;;
46507;SDS011;32223;53.654;10.014;2023-06-19T00:28:47;5.75;;;3.85;;
46507;SDS011;32223;53.654;10.014;2023-06-19T00:31:13;5.65;;;4.18;;
46507;SDS011;32223;53.654;10.014;2023-06-19T00:33:40;6.35;;;4.25;;
46507;SDS011;32223;53.654;10.014;2023-06-19T00:36:12;5.95;;;4.10;;
46507;SDS011;32223;53.654;10.014;2023-06-19T00:38:40;6.60;;;4.07;;
46507;SDS011;32223;53.654;10.014;2023-06-19T00:41:06;5.68;;;4.32;;
46507;SDS011;32223;53.654;10.014;2023-06-19T00:43:32;6.38;;;4.40;;
46507;SDS011;32223;53.654;10.014;2023-06-19T00:45:58;6.72;;;4.25;;
46507;SDS011;32223;53.654;10.014;2023-06-19T00:48:25;6.60;;;4.20;;
46507;SDS011;32223;53.654;10.014;2023-06-19T00:50:52;5.55;;;4.32;;
46507;SDS011;32223;53.654;10.014;2023-06-19T00:53:18;6.72;;;4.35;;
46507;SDS011;32223;53.654;10.014;2023-06-19T00:55:44;6.55;;;4.03;;
46507;SDS011;32223;53.654;10.014;2023-06-19T00:58:12;6.85;;;4.07;;
46507;SDS011;32223;53.654;10.014;2023-06-19T01:00:38;7.03;;;4.18;;
46507;SDS011;32223;53.654;10.014;2023-06-19T01:03:04;5.72;;;3.83;;
46507;SDS011;32223;53.654;10.014;2023-06-19T01:05:29;7.18;;;4.20;;
46507;SDS011;32223;53.654;10.014;2023-06-19T01:07:59;8.40;;;4.47;;
46507;SDS011;32223;53.654;10.014;2023-06-19T01:10:35;6.00;;;4.57;;
46507;SDS011;32223;53.654;10.014;2023-06-19T01:15:44;4.82;;;3.63;;
46507;SDS011;32223;53.654;10.014;2023-06-19T01:18:12;3.97;;;3.25;;
46507;SDS011;32223;53.654;10.014;2023-06-19T01:20:39;4.90;;;4.20;;
46507;SDS011;32223;53.654;10.014;2023-06-19T01:23:08;5.95;;;4.55;;
46507;SDS011;32223;53.654;10.014;2023-06-19T01:25:34;5.57;;;3.88;;
46507;SDS011;32223;53.654;10.014;2023-06-19T01:28:01;4.50;;;3.35;;
46507;SDS011;32223;53.654;10.014;2023-06-19T01:30:29;6.25;;;4.30;;
46507;SDS011;32223;53.654;10.014;2023-06-19T01:35:45;5.32;;;4.38;;
46507;SDS011;32223;53.654;10.014;2023-06-19T01:38:12;6.45;;;4.53;;
46507;SDS011;32223;53.654;10.014;2023-06-19T01:40:39;5.35;;;4.13;;
46507;SDS011;32223;53.654;10.014;2023-06-19T01:43:05;5.15;;;4.18;;
46507;SDS011;32223;53.654;10.014;2023-06-19T01:45:33;6.05;;;4.03;;
46507;SDS011;32223;53.654;10.014;2023-06-19T01:47:59;5.03;;;4.05;;
46507;SDS011;32223;53.654;10.014;2023-06-19T01:50:25;5.10;;;3.97;;
46507;SDS011;32223;53.654;10.014;2023-06-19T01:52:51;6.05;;;3.85;;
46507;SDS011;32223;53.654;10.014;2023-06-19T01:55:17;5.40;;;4.00;;
46507;SDS011;32223;53.654;10.014;2023-06-19T01:57:43;6.35;;;4.22;;
46507;SDS011;32223;53.654;10.014;2023-06-19T02:00:10;5.95;;;4.35;;
46507;SDS011;32223;53.654;10.014;2023-06-19T02:02:37;4.72;;;3.80;;
46507;SDS011;32223;53.654;10.014;2023-06-19T02:05:02;5.25;;;4.35;;
46507;SDS011;32223;53.654;10.014;2023-06-19T02:07:29;5.47;;;4.47;;
46507;SDS011;32223;53.654;10.014;2023-06-19T02:09:55;5.25;;;4.03;;
46507;SDS011;32223;53.654;10.014;2023-06-19T02:12:21;6.63;;;4.10;;
46507;SDS011;32223;53.654;10.014;2023-06-19T02:14:47;7.68;;;4.28;;
46507;SDS011;32223;53.654;10.014;2023-06-19T02:17:13;5.13;;;3.92;;
46507;SDS011;32223;53.654;10.014;2023-06-19T02:19:38;5.63;;;4.22;;
46507;SDS011;32223;53.654;10.014;2023-06-19T02:22:05;6.53;;;3.60;;
46507;SDS011;32223;53.654;10.014;2023-06-19T02:24:31;5.45;;;3.95;;
46507;SDS011;32223;53.654;10.014;2023-06-19T02:26:57;7.35;;;4.05;;
46507;SDS011;32223;53.654;10.014;2023-06-19T02:29:23;5.53;;;4.32;;
46507;SDS011;32223;53.654;10.014;2023-06-19T02:31:48;6.53;;;4.18;;
46507;SDS011;32223;53.654;10.014;2023-06-19T02:34:14;5.32;;;3.80;;
46507;SDS011;32223;53.654;10.014;2023-06-19T02:36:40;4.88;;;4.13;;
46507;SDS011;32223;53.654;10.014;2023-06-19T02:39:06;6.20;;;4.15;;
46507;SDS011;32223;53.654;10.014;2023-06-19T02:41:33;4.82;;;3.53;;
46507;SDS011;32223;53.654;10.014;2023-06-19T02:43:58;5.88;;;4.57;;
46507;SDS011;32223;53.654;10.014;2023-06-19T02:46:24;6.90;;;3.95;;
46507;SDS011;32223;53.654;10.014;2023-06-19T02:48:50;7.53;;;3.75;;
46507;SDS011;32223;53.654;10.014;2023-06-19T02:51:15;5.68;;;4.10;;
46507;SDS011;32223;53.654;10.014;2023-06-19T02:53:41;7.30;;;4.70;;
46507;SDS011;32223;53.654;10.014;2023-06-19T02:56:08;6.00;;;4.22;;
46507;SDS011;32223;53.654;10.014;2023-06-19T02:58:34;8.25;;;4.57;;
46507;SDS011;32223;53.654;10.014;2023-06-19T03:01:02;6.43;;;4.25;;
46507;SDS011;32223;53.654;10.014;2023-06-19T03:03:28;6.13;;;4.35;;
46507;SDS011;32223;53.654;10.014;2023-06-19T03:05:54;5.68;;;4.13;;
46507;SDS011;32223;53.654;10.014;2023-06-19T03:08:20;6.60;;;4.10;;
46507;SDS011;32223;53.654;10.014;2023-06-19T03:10:46;5.90;;;4.35;;
46507;SDS011;32223;53.654;10.014;2023-06-19T03:13:12;6.80;;;4.95;;
46507;SDS011;32223;53.654;10.014;2023-06-19T03:15:38;7.97;;;4.65;;
46507;SDS011;32223;53.654;10.014;2023-06-19T03:18:04;5.57;;;4.22;;
46507;SDS011;32223;53.654;10.014;2023-06-19T03:20:32;5.13;;;4.47;;
46507;SDS011;32223;53.654;10.014;2023-06-19T03:22:58;6.90;;;4.00;;
46507;SDS011;32223;53.654;10.014;2023-06-19T03:25:23;6.22;;;4.63;;
46507;SDS011;32223;53.654;10.014;2023-06-19T03:27:49;5.32;;;4.30;;
46507;SDS011;32223;53.654;10.014;2023-06-19T03:30:14;7.20;;;4.32;;
46507;SDS011;32223;53.654;10.014;2023-06-19T03:32:43;8.60;;;4.72;;
46507;SDS011;32223;53.654;10.014;2023-06-19T03:35:09;6.20;;;4.53;;
46507;SDS011;32223;53.654;10.014;2023-06-19T03:37:35;5.70;;;4.90;;
46507;SDS011;32223;53.654;10.014;2023-06-19T03:40:01;6.53;;;4.57;;
46507;SDS011;32223;53.654;10.014;2023-06-19T03:42:28;7.90;;;4.47;;
46507;SDS011;32223;53.654;10.014;2023-06-19T03:44:54;7.75;;;5.30;;
46507;SDS011;32223;53.654;10.014;2023-06-19T03:47:19;5.88;;;4.50;;
46507;SDS011;32223;53.654;10.014;2023-06-19T03:49:45;6.82;;;4.60;;
46507;SDS011;32223;53.654;10.014;2023-06-19T03:52:13;5.88;;;4.30;;
46507;SDS011;32223;53.654;10.014;2023-06-19T03:54:39;5.63;;;4.88;;
46507;SDS011;32223;53.654;10.014;2023-06-19T03:57:05;5.55;;;4.55;;
46507;SDS011;32223;53.654;10.014;2023-06-19T03:59:31;5.47;;;4.70;;
46507;SDS011;32223;53.654;10.014;2023-06-19T04:01:57;5.38;;;4.57;;
46507;SDS011;32223;53.654;10.014;2023-06-19T04:04:22;6.38;;;4.93;;
46507;SDS011;32223;53.654;10.014;2023-06-19T04:06:49;6.35;;;4.97;;
46507;SDS011;32223;53.654;10.014;2023-06-19T04:09:15;6.25;;;4.05;;
46507;SDS011;32223;53.654;10.014;2023-06-19T04:11:40;5.70;;;4.75;;
46507;SDS011;32223;53.654;10.014;2023-06-19T04:14:06;6.63;;;5.35;;
46507;SDS011;32223;53.654;10.014;2023-06-19T04:16:32;7.88;;;5.20;;
46507;SDS011;32223;53.654;10.014;2023-06-19T04:18:57;7.88;;;4.90;;
46507;SDS011;32223;53.654;10.014;2023-06-19T04:21:23;6.32;;;5.38;;
46507;SDS011;32223;53.654;10.014;2023-06-19T04:23:50;10.07;;;4.80;;
46507;SDS011;32223;53.654;10.014;2023-06-19T04:26:15;6.00;;;4.45;;
46507;SDS011;32223;53.654;10.014;2023-06-19T04:28:41;6.53;;;4.50;;
46507;SDS011;32223;53.654;10.014;2023-06-19T04:31:07;5.78;;;4.70;;
46507;SDS011;32223;53.654;10.014;2023-06-19T04:33:32;6.22;;;5.07;;
46507;SDS011;32223;53.654;10.014;2023-06-19T04:35:58;6.25;;;4.50;;
46507;SDS011;32223;53.654;10.014;2023-06-19T04:38:24;6.68;;;5.30;;
46507;SDS011;32223;53.654;10.014;2023-06-19T04:40:50;8.73;;;5.40;;
46507;SDS011;32223;53.654;10.014;2023-06-19T04:43:16;7.25;;;5.00;;
46507;SDS011;32223;53.654;10.014;2023-06-19T04:45:42;6.57;;;4.90;;
46507;SDS011;32223;53.654;10.014;2023-06-19T04:48:08;6.70;;;5.15;;
46507;SDS011;32223;53.654;10.014;2023-06-19T04:50:34;7.45;;;5.47;;
46507;SDS011;32223;53.654;10.014;2023-06-19T04:53:00;9.60;;;5.40;;
46507;SDS011;32223;53.654;10.014;2023-06-19T04:55:25;7.05;;;5.28;;
46507;SDS011;32223;53.654;10.014;2023-06-19T04:57:51;7.65;;;5.03;;
46507;SDS011;32223;53.654;10.014;2023-06-19T05:00:17;8.20;;;5.18;;
46507;SDS011;32223;53.654;10.014;2023-06-19T05:02:44;8.07;;;4.78;;
46507;SDS011;32223;53.654;10.014;2023-06-19T05:05:12;7.35;;;5.28;;
46507;SDS011;32223;53.654;10.014;2023-06-19T05:07:38;8.60;;;5.30;;
46507;SDS011;32223;53.654;10.014;2023-06-19T05:10:04;12.82;;;5.70;;
46507;SDS011;32223;53.654;10.014;2023-06-19T05:12:31;8.88;;;5.68;;
46507;SDS011;32223;53.654;10.014;2023-06-19T05:14:57;7.93;;;4.90;;
46507;SDS011;32223;53.654;10.014;2023-06-19T05:17:22;8.18;;;5.43;;
46507;SDS011;32223;53.654;10.014;2023-06-19T05:19:48;8.35;;;5.47;;
46507;SDS011;32223;53.654;10.014;2023-06-19T05:22:14;5.93;;;5.15;;
46507;SDS011;32223;53.654;10.014;2023-06-19T05:24:40;8.98;;;5.82;;
46507;SDS011;32223;53.654;10.014;2023-06-19T05:27:05;20.67;;;6.05;;
46507;SDS011;32223;53.654;10.014;2023-06-19T05:29:31;6.53;;;5.20;;
46507;SDS011;32223;53.654;10.014;2023-06-19T05:31:57;6.45;;;5.40;;
46507;SDS011;32223;53.654;10.014;2023-06-19T05:34:23;7.40;;;5.75;;
46507;SDS011;32223;53.654;10.014;2023-06-19T05:36:48;7.50;;;5.32;;
46507;SDS011;32223;53.654;10.014;2023-06-19T05:39:14;8.13;;;5.20;;
46507;SDS011;32223;53.654;10.014;2023-06-19T05:41:40;6.30;;;5.32;;
46507;SDS011;32223;53.654;10.014;2023-06-19T05:44:05;8.02;;;5.75;;
46507;SDS011;32223;53.654;10.014;2023-06-19T05:46:31;9.15;;;5.30;;
46507;SDS011;32223;53.654;10.014;2023-06-19T05:48:56;6.28;;;4.75;;
46507;SDS011;32223;53.654;10.014;2023-06-19T05:51:22;8.73;;;5.43;;
46507;SDS011;32223;53.654;10.014;2023-06-19T05:53:48;6.75;;;5.25;;
46507;SDS011;32223;53.654;10.014;2023-06-19T05:56:17;10.98;;;6.40;;
46507;SDS011;32223;53.654;10.014;2023-06-19T05:58:42;8.18;;;5.93;;
46507;SDS011;32223;53.654;10.014;2023-06-19T06:01:08;6.07;;;4.85;;
46507;SDS011;32223;53.654;10.014;2023-06-19T06:03:34;6.15;;;5.18;;
46507;SDS011;32223;53.654;10.014;2023-06-19T06:06:01;7.47;;;4.85;;
46507;SDS011;32223;53.654;10.014;2023-06-19T06:08:29;6.95;;;5.80;;
46507;SDS011;32223;53.654;10.014;2023-06-19T06:10:55;8.30;;;5.80;;
46507;SDS011;32223;53.654;10.014;2023-06-19T06:13:21;6.47;;;5.57;;
46507;SDS011;32223;53.654;10.014;2023-06-19T06:15:47;7.85;;;6.00;;
46507;SDS011;32223;53.654;10.014;2023-06-19T06:18:12;8.75;;;5.68;;
46507;SDS011;32223;53.654;10.014;2023-06-19T06:20:38;8.98;;;6.10;;
46507;SDS011;32223;53.654;10.014;2023-06-19T06:23:04;9.00;;;6.72;;
46507;SDS011;32223;53.654;10.014;2023-06-19T06:25:30;7.70;;;5.82;;
46507;SDS011;32223;53.654;10.014;2023-06-19T06:27:55;7.75;;;5.80;;
46507;SDS011;32223;53.654;10.014;2023-06-19T06:30:21;8.65;;;5.70;;
46507;SDS011;32223;53.654;10.014;2023-06-19T06:32:48;7.05;;;5.43;;
46507;SDS011;32223;53.654;10.014;2023-06-19T06:35:14;10.43;;;5.65;;
46507;SDS011;32223;53.654;10.014;2023-06-19T06:37:40;7.95;;;6.00;;
46507;SDS011;32223;53.654;10.014;2023-06-19T06:40:06;8.80;;;5.53;;
46507;SDS011;32223;53.654;10.014;2023-06-19T06:42:36;8.90;;;5.80;;
46507;SDS011;32223;53.654;10.014;2023-06-19T06:45:02;8.98;;;6.05;;
46507;SDS011;32223;53.654;10.014;2023-06-19T06:47:31;10.15;;;6.65;;
46507;SDS011;32223;53.654;10.014;2023-06-19T06:49:57;7.00;;;5.88;;
46507;SDS011;32223;53.654;10.014;2023-06-19T06:52:22;13.15;;;6.30;;
46507;SDS011;32223;53.654;10.014;2023-06-19T06:54:49;6.05;;;5.45;;
46507;SDS011;32223;53.654;10.014;2023-06-19T06:57:15;9.13;;;5.47;;
46507;SDS011;32223;53.654;10.014;2023-06-19T06:59:41;8.48;;;5.75;;
46507;SDS011;32223;53.654;10.014;2023-06-19T07:02:07;8.25;;;5.78;;
46507;SDS011;32223;53.654;10.014;2023-06-19T07:04:32;11.88;;;6.40;;
46507;SDS011;32223;53.654;10.014;2023-06-19T07:06:58;8.15;;;6.38;;
46507;SDS011;32223;53.654;10.014;2023-06-19T07:09:24;8.02;;;6.80;;
46507;SDS011;32223;53.654;10.014;2023-06-19T07:11:49;7.40;;;6.07;;
46507;SDS011;32223;53.654;10.014;2023-06-19T07:14:15;7.47;;;6.07;;
46507;SDS011;32223;53.654;10.014;2023-06-19T07:16:46;9.10;;;6.63;;
46507;SDS011;32223;53.654;10.014;2023-06-19T07:19:12;9.27;;;6.63;;
46507;SDS011;32223;53.654;10.014;2023-06-19T07:21:38;7.82;;;6.30;;
46507;SDS011;32223;53.654;10.014;2023-06-19T07:24:05;9.38;;;6.43;;
46507;SDS011;32223;53.654;10.014;2023-06-19T07:26:31;7.55;;;6.22;;
46507;SDS011;32223;53.654;10.014;2023-06-19T07:28:56;9.18;;;6.95;;
46507;SDS011;32223;53.654;10.014;2023-06-19T07:31:22;7.97;;;6.15;;
46507;SDS011;32223;53.654;10.014;2023-06-19T07:33:48;9.73;;;6.40;;
46507;SDS011;32223;53.654;10.014;2023-06-19T07:36:13;7.45;;;6.32;;
46507;SDS011;32223;53.654;10.014;2023-06-19T07:38:41;7.63;;;6.35;;
46507;SDS011;32223;53.654;10.014;2023-06-19T07:41:08;7.38;;;6.45;;
46507;SDS011;32223;53.654;10.014;2023-06-19T07:43:35;8.98;;;6.60;;
46507;SDS011;32223;53.654;10.014;2023-06-19T07:46:01;7.95;;;6.38;;
46507;SDS011;32223;53.654;10.014;2023-06-19T07:48:27;9.20;;;6.57;;
46507;SDS011;32223;53.654;10.014;2023-06-19T07:50:53;9.98;;;7.60;;
46507;SDS011;32223;53.654;10.014;2023-06-19T07:53:19;7.15;;;6.30;;
46507;SDS011;32223;53.654;10.014;2023-06-19T07:55:44;8.35;;;6.57;;
46507;SDS011;32223;53.654;10.014;2023-06-19T07:58:10;8.45;;;6.50;;
46507;SDS011;32223;53.654;10.014;2023-06-19T08:00:35;8.52;;;7.43;;
46507;SDS011;32223;53.654;10.014;2023-06-19T08:03:01;8.35;;;6.80;;
46507;SDS011;32223;53.654;10.014;2023-06-19T08:05:27;9.30;;;6.50;;
46507;SDS011;32223;53.654;10.014;2023-06-19T08:07:52;9.35;;;7.18;;
46507;SDS011;32223;53.654;10.014;2023-06-19T08:10:18;7.40;;;6.45;;
46507;SDS011;32223;53.654;10.014;2023-06-19T08:12:44;11.70;;;7.18;;
46507;SDS011;32223;53.654;10.014;2023-06-19T08:15:10;7.20;;;6.38;;
46507;SDS011;32223;53.654;10.014;2023-06-19T08:17:36;7.65;;;6.43;;
46507;SDS011;32223;53.654;10.014;2023-06-19T08:20:02;8.65;;;6.40;;
46507;SDS011;32223;53.654;10.014;2023-06-19T08:22:32;7.65;;;6.80;;
46507;SDS011;32223;53.654;10.014;2023-06-19T08:24:57;8.75;;;7.53;;
46507;SDS011;32223;53.654;10.014;2023-06-19T08:27:23;9.20;;;7.63;;
46507;SDS011;32223;53.654;10.014;2023-06-19T08:29:49;8.45;;;7.00;;
46507;SDS011;32223;53.654;10.014;2023-06-19T08:32:14;9.38;;;6.80;;
46507;SDS011;32223;53.654;10.014;2023-06-19T08:34:41;8.07;;;6.82;;
46507;SDS011;32223;53.654;10.014;2023-06-19T08:37:07;7.85;;;6.47;;
46507;SDS011;32223;53.654;10.014;2023-06-19T08:39:33;9.95;;;6.95;;
46507;SDS011;32223;53.654;10.014;2023-06-19T08:41:59;7.47;;;6.38;;
46507;SDS011;32223;53.654;10.014;2023-06-19T08:44:24;9.80;;;7.32;;
46507;SDS011;32223;53.654;10.014;2023-06-19T08:46:50;9.73;;;7.20;;
46507;SDS011;32223;53.654;10.014;2023-06-19T08:49:16;9.13;;;7.40;;
46507;SDS011;32223;53.654;10.014;2023-06-19T08:51:42;17.95;;;7.57;;
46507;SDS011;32223;53.654;10.014;2023-06-19T08:54:07;9.35;;;6.88;;
46507;SDS011;32223;53.654;10.014;2023-06-19T08:56:34;8.80;;;6.72;;
46507;SDS011;32223;53.654;10.014;2023-06-19T09:01:36;9.18;;;6.75;;
46507;SDS011;32223;53.654;10.014;2023-06-19T09:04:11;6.90;;;5.78;;
46507;SDS011;32223;53.654;10.014;2023-06-19T09:06:48;9.18;;;6.85;;
46507;SDS011;32223;53.654;10.014;2023-06-19T09:09:15;7.57;;;5.78;;
46507;SDS011;32223;53.654;10.014;2023-06-19T09:11:41;8.45;;;6.97;;
46507;SDS011;32223;53.654;10.014;2023-06-19T09:14:10;11.35;;;6.35;;
46507;SDS011;32223;53.654;10.014;2023-06-19T09:16:40;8.40;;;7.00;;
46507;SDS011;32223;53.654;10.014;2023-06-19T09:19:07;8.68;;;7.38;;
46507;SDS011;32223;53.654;10.014;2023-06-19T09:21:35;12.20;;;6.50;;
46507;SDS011;32223;53.654;10.014;2023-06-19T09:24:08;9.05;;;7.10;;
46507;SDS011;32223;53.654;10.014;2023-06-19T09:26:33;8.07;;;6.90;;
46507;SDS011;32223;53.654;10.014;2023-06-19T09:29:10;9.25;;;6.70;;
46507;SDS011;32223;53.654;10.014;2023-06-19T09:31:41;10.55;;;6.35;;
46507;SDS011;32223;53.654;10.014;2023-06-19T09:34:07;8.85;;;6.68;;
46507;SDS011;32223;53.654;10.014;2023-06-19T09:36:33;8.98;;;6.32;;
46507;SDS011;32223;53.654;10.014;2023-06-19T09:39:01;9.05;;;6.55;;
46507;SDS011;32223;53.654;10.014;2023-06-19T09:41:29;7.57;;;6.25;;
46507;SDS011;32223;53.654;10.014;2023-06-19T09:43:55;9.07;;;6.05;;
46507;SDS011;32223;53.654;10.014;2023-06-19T09:46:26;7.45;;;6.13;;
46507;SDS011;32223;53.654;10.014;2023-06-19T09:48:54;8.18;;;5.43;;
46507;SDS011;32223;53.654;10.014;2023-06-19T09:51:27;6.82;;;6.13;;
46507;SDS011;32223;53.654;10.014;2023-06-19T09:53:56;7.78;;;5.90;;
46507;SDS011;32223;53.654;10.014;2023-06-19T09:56:23;9.07;;;5.85;;
46507;SDS011;32223;53.654;10.014;2023-06-19T09:58:52;8.27;;;5.68;;
46507;SDS011;32223;53.654;10.014;2023-06-19T10:01:21;6.43;;;5.82;;
46507;SDS011;32223;53.654;10.014;2023-06-19T10:03:47;8.20;;;6.05;;
46507;SDS011;32223;53.654;10.014;2023-06-19T10:06:14;7.25;;;6.00;;
46507;SDS011;32223;53.654;10.014;2023-06-19T10:08:45;6.72;;;6.05;;
46507;SDS011;32223;53.654;10.014;2023-06-19T10:11:11;9.52;;;6.80;;
46507;SDS011;32223;53.654;10.014;2023-06-19T10:13:39;7.13;;;6.43;;
46507;SDS011;32223;53.654;10.014;2023-06-19T10:16:22;8.05;;;6.25;;
46507;SDS011;32223;53.654;10.014;2023-06-19T10:18:48;7.93;;;6.38;;
46507;SDS011;32223;53.654;10.014;2023-06-19T10:21:17;6.82;;;6.13;;
46507;SDS011;32223;53.654;10.014;2023-06-19T10:23:51;9.25;;;6.55;;
46507;SDS011;32223;53.654;10.014;2023-06-19T10:26:29;7.47;;;6.43;;
46507;SDS011;32223;53.654;10.014;2023-06-19T10:28:58;6.95;;;6.25;;
46507;SDS011;32223;53.654;10.014;2023-06-19T10:31:24;8.15;;;6.10;;
46507;SDS011;32223;53.654;10.014;2023-06-19T10:33:50;7.25;;;6.53;;
46507;SDS011;32223;53.654;10.014;2023-06-19T10:36:16;8.50;;;6.03;;
46507;SDS011;32223;53.654;10.014;2023-06-19T10:38:42;7.93;;;7.13;;
46507;SDS011;32223;53.654;10.014;2023-06-19T10:41:23;8.43;;;6.45;;
46507;SDS011;32223;53.654;10.014;2023-06-19T10:46:21;9.40;;;6.85;;
46507;SDS011;32223;53.654;10.014;2023-06-19T10:48:48;9.07;;;6.75;;
46507;SDS011;32223;53.654;10.014;2023-06-19T10:51:19;13.02;;;7.47;;
46507;SDS011;32223;53.654;10.014;2023-06-19T10:53:45;10.73;;;6.97;;
46507;SDS011;32223;53.654;10.014;2023-06-19T10:56:10;11.15;;;6.60;;
46507;SDS011;32223;53.654;10.014;2023-06-19T10:58:36;11.52;;;8.90;;
46507;SDS011;32223;53.654;10.014;2023-06-19T11:01:01;9.80;;;7.00;;
46507;SDS011;32223;53.654;10.014;2023-06-19T11:03:28;8.13;;;6.95;;
46507;SDS011;32223;53.654;10.014;2023-06-19T11:05:54;11.00;;;6.50;;
46507;SDS011;32223;53.654;10.014;2023-06-19T11:08:22;9.57;;;6.07;;
46507;SDS011;32223;53.654;10.014;2023-06-19T11:10:48;10.63;;;6.47;;
46507;SDS011;32223;53.654;10.014;2023-06-19T11:13:15;9.00;;;8.05;;
46507;SDS011;32223;53.654;10.014;2023-06-19T11:15:42;10.48;;;7.20;;
46507;SDS011;32223;53.654;10.014;2023-06-19T11:18:09;8.23;;;6.85;;
46507;SDS011;32223;53.654;10.014;2023-06-19T11:20:47;7.05;;;6.28;;
46507;SDS011;32223;53.654;10.014;2023-06-19T11:23:15;8.95;;;6.45;;
46507;SDS011;32223;53.654;10.014;2023-06-19T11:25:42;7.72;;;6.88;;
46507;SDS011;32223;53.654;10.014;2023-06-19T11:28:15;10.32;;;7.05;;
46507;SDS011;32223;53.654;10.014;2023-06-19T11:30:47;9.30;;;6.93;;
46507;SDS011;32223;53.654;10.014;2023-06-19T11:33:22;7.47;;;6.70;;
46507;SDS011;32223;53.654;10.014;2023-06-19T11:35:52;9.40;;;7.35;;
46507;SDS011;32223;53.654;10.014;2023-06-19T11:38:20;11.32;;;7.13;;
46507;SDS011;32223;53.654;10.014;2023-06-19T11:40:47;11.18;;;6.35;;
46507;SDS011;32223;53.654;10.014;2023-06-19T11:43:26;11.52;;;6.32;;
46507;SDS011;32223;53.654;10.014;2023-06-19T11:45:53;7.03;;;5.28;;
46507;SDS011;32223;53.654;10.014;2023-06-19T11:48:30;6.57;;;5.05;;
46507;SDS011;32223;53.654;10.014;2023-06-19T11:50:56;6.45;;;5.72;;
46507;SDS011;32223;53.654;10.014;2023-06-19T11:53:22;5.85;;;5.25;;
46507;SDS011;32223;53.654;10.014;2023-06-19T11:55:49;7.80;;;4.82;;
46507;SDS011;32223;53.654;10.014;2023-06-19T11:58:15;5.28;;;4.63;;
46507;SDS011;32223;53.654;10.014;2023-06-19T12:00:41;6.10;;;5.07;;
46507;SDS011;32223;53.654;10.014;2023-06-19T12:03:08;8.55;;;4.63;;
46507;SDS011;32223;53.654;10.014;2023-06-19T12:05:34;8.60;;;5.22;;
46507;SDS011;32223;53.654;10.014;2023-06-19T12:08:00;6.97;;;5.05;;
46507;SDS011;32223;53.654;10.014;2023-06-19T12:10:29;5.75;;;5.05;;
46507;SDS011;32223;53.654;10.014;2023-06-19T12:12:58;6.70;;;5.00;;
46507;SDS011;32223;53.654;10.014;2023-06-19T12:15:24;6.88;;;4.93;;
46507;SDS011;32223;53.654;10.014;2023-06-19T12:17:50;7.10;;;5.35;;
46507;SDS011;32223;53.654;10.014;2023-06-19T12:20:16;7.60;;;6.65;;
46507;SDS011;32223;53.654;10.014;2023-06-19T12:22:42;6.40;;;5.00;;
46507;SDS011;32223;53.654;10.014;2023-06-19T12:25:08;6.78;;;5.00;;
46507;SDS011;32223;53.654;10.014;2023-06-19T12:27:33;7.65;;;5.43;;
46507;SDS011;32223;53.654;10.014;2023-06-19T12:29:59;6.45;;;4.93;;
46507;SDS011;32223;53.654;10.014;2023-06-19T12:32:25;5.55;;;4.97;;
46507;SDS011;32223;53.654;10.014;2023-06-19T12:34:50;7.10;;;5.22;;
46507;SDS011;32223;53.654;10.014;2023-06-19T12:37:19;5.80;;;4.53;;
46507;SDS011;32223;53.654;10.014;2023-06-19T12:39:45;6.50;;;3.95;;
46507;SDS011;32223;53.654;10.014;2023-06-19T12:42:11;5.88;;;4.43;;
46507;SDS011;32223;53.654;10.014;2023-06-19T12:44:40;6.65;;;4.78;;
46507;SDS011;32223;53.654;10.014;2023-06-19T12:47:07;15.68;;;5.43;;
46507;SDS011;32223;53.654;10.014;2023-06-19T12:49:33;5.93;;;4.82;;
46507;SDS011;32223;53.654;10.014;2023-06-19T12:51:59;5.78;;;4.47;;
46507;SDS011;32223;53.654;10.014;2023-06-19T12:54:25;6.72;;;4.78;;
46507;SDS011;32223;53.654;10.014;2023-06-19T12:56:52;9.27;;;4.88;;
46507;SDS011;32223;53.654;10.014;2023-06-19T12:59:17;6.93;;;4.03;;
46507;SDS011;32223;53.654;10.014;2023-06-19T13:01:43;8.20;;;4.63;;
46507;SDS011;32223;53.654;10.014;2023-06-19T13:04:09;9.70;;;4.63;;
46507;SDS011;32223;53.654;10.014;2023-06-19T13:06:36;7.38;;;3.95;;
46507;SDS011;32223;53.654;10.014;2023-06-19T13:09:02;5.10;;;4.32;;
46507;SDS011;32223;53.654;10.014;2023-06-19T13:11:29;6.57;;;4.63;;
46507;SDS011;32223;53.654;10.014;2023-06-19T13:13:55;7.13;;;4.50;;
46507;SDS011;32223;53.654;10.014;2023-06-19T13:16:21;7.45;;;4.70;;
46507;SDS011;32223;53.654;10.014;2023-06-19T13:18:49;4.40;;;4.00;;
46507;SDS011;32223;53.654;10.014;2023-06-19T13:21:14;5.47;;;4.53;;
46507;SDS011;32223;53.654;10.014;2023-06-19T13:23:40;5.28;;;4.57;;
46507;SDS011;32223;53.654;10.014;2023-06-19T13:26:06;7.55;;;4.55;;
46507;SDS011;32223;53.654;10.014;2023-06-19T13:28:32;6.55;;;4.95;;
46507;SDS011;32223;53.654;10.014;2023-06-19T13:30:57;7.45;;;4.47;;
46507;SDS011;32223;53.654;10.014;2023-06-19T13:33:24;7.35;;;4.82;;
46507;SDS011;32223;53.654;10.014;2023-06-19T13:35:50;5.22;;;4.50;;
46507;SDS011;32223;53.654;10.014;2023-06-19T13:38:16;6.47;;;4.63;;
46507;SDS011;32223;53.654;10.014;2023-06-19T13:40:42;6.43;;;4.38;;
46507;SDS011;32223;53.654;10.014;2023-06-19T13:43:08;8.85;;;5.00;;
46507;SDS011;32223;53.654;10.014;2023-06-19T13:45:33;8.18;;;4.03;;
46507;SDS011;32223;53.654;10.014;2023-06-19T13:47:59;5.78;;;3.55;;
46507;SDS011;32223;53.654;10.014;2023-06-19T13:50:26;5.45;;;3.95;;
46507;SDS011;32223;53.654;10.014;2023-06-19T13:52:52;5.55;;;3.60;;
46507;SDS011;32223;53.654;10.014;2023-06-19T13:55:18;5.95;;;3.30;;
46507;SDS011;32223;53.654;10.014;2023-06-19T13:57:44;6.32;;;3.08;;
46507;SDS011;32223;53.654;10.014;2023-06-19T14:00:10;4.95;;;3.80;;
46507;SDS011;32223;53.654;10.014;2023-06-19T14:02:37;6.10;;;3.20;;
46507;SDS011;32223;53.654;10.014;2023-06-19T14:05:06;7.97;;;3.53;;
46507;SDS011;32223;53.654;10.014;2023-06-19T14:07:33;5.30;;;3.85;;
46507;SDS011;32223;53.654;10.014;2023-06-19T14:09:59;6.47;;;3.50;;
46507;SDS011;32223;53.654;10.014;2023-06-19T14:12:26;4.82;;;3.10;;
46507;SDS011;32223;53.654;10.014;2023-06-19T14:14:51;4.88;;;3.25;;
46507;SDS011;32223;53.654;10.014;2023-06-19T14:17:17;7.68;;;3.08;;
46507;SDS011;32223;53.654;10.014;2023-06-19T14:19:43;6.70;;;3.47;;
46507;SDS011;32223;53.654;10.014;2023-06-19T14:22:08;5.47;;;3.53;;
46507;SDS011;32223;53.654;10.014;2023-06-19T14:24:34;11.02;;;3.92;;
46507;SDS011;32223;53.654;10.014;2023-06-19T14:26:59;4.20;;;3.22;;
46507;SDS011;32223;53.654;10.014;2023-06-19T14:29:25;5.97;;;3.40;;
46507;SDS011;32223;53.654;10.014;2023-06-19T14:31:51;5.63;;;3.28;;
46507;SDS011;32223;53.654;10.014;2023-06-19T14:34:18;6.28;;;3.40;;
46507;SDS011;32223;53.654;10.014;2023-06-19T14:36:44;9.80;;;4.45;;
46507;SDS011;32223;53.654;10.014;2023-06-19T14:39:10;5.85;;;3.10;;
46507;SDS011;32223;53.654;10.014;2023-06-19T14:41:37;6.93;;;3.13;;